Time;durP1;ratioP1;P1;durP2;ratioP2;P2;SDS_P1;SDS_P2;PMS_P1;PMS_P2;Temp;Humidity;BMP_temperature;BMP_pressure;BME280_temperature;BME280_humidity;BME280_pressure;Samples;Min_cycle;Max_cycle;Signal;HPM_P1;HPM_P2
2023/11/22 00:02:08;;;;;;;;;;;15.00;87.70;;;;;;3968161;29;19940;-54
2023/11/22 00:04:48;;;;;;;;;;;15.10;87.40;;;;;;3981932;29;19940;-54
2023/11/22 00:07:29;;;;;;;;;;;15.20;87.10;;;;;;3970311;29;19980;-57
2023/11/22 00:10:10;;;;;;;;;;;15.30;86.80;;;;;;3981656;29;20038;-55
2023/11/22 00:12:50;;;;;;;;;;;15.30;86.50;;;;;;3980488;29;19936;-56
2023/11/22 00:15:31;;;;;;;;;;;15.30;86.40;;;;;;3981318;29;19951;-56
2023/11/22 00:18:13;;;;;;;;;;;15.30;86.30;;;;;;3975068;29;19960;-55
2023/11/22 00:20:54;;;;;;;;;;;15.30;86.20;;;;;;3966673;29;19950;-56
2023/11/22 00:23:35;;;;;;;;;;;15.20;86.20;;;;;;3975010;29;20293;-56
2023/11/22 00:26:16;;;;;;;;;;;15.20;86.40;;;;;;3981125;29;20021;-55
2023/11/22 00:29:06;;;;;;;;;;;15.30;87.20;;;;;;3981845;29;19964;-55
2023/11/22 00:31:46;;;;;;;;;;;15.30;86.10;;;;;;3982188;29;20073;-56
2023/11/22 00:34:28;;;;;;;;;;;15.40;85.90;;;;;;3972782;29;19940;-54
2023/11/22 00:37:10;;;;;;;;;;;15.40;85.70;;;;;;3983980;29;19936;-56
2023/11/22 00:39:51;;;;;;;;;;;15.50;85.40;;;;;;3983761;29;19936;-46
2023/11/22 00:42:33;;;;;;;;;;;15.50;86.00;;;;;;3972969;29;20301;-48
2023/11/22 00:45:13;;;;;;;;;;;15.50;85.00;;;;;;3983190;29;20386;-57
2023/11/22 00:47:54;;;;;;;;;;;15.50;84.80;;;;;;3984174;29;20408;-55
2023/11/22 00:50:36;;;;;;;;;;;15.50;85.70;;;;;;3983494;29;19975;-55
2023/11/22 00:53:18;;;;;;;;;;;15.50;84.80;;;;;;3982566;29;19935;-55
2023/11/22 00:55:58;;;;;;;;;;;15.60;84.70;;;;;;3972330;29;19976;-55
2023/11/22 00:58:39;;;;;;;;;;;15.70;84.40;;;;;;3982930;29;19935;-54
2023/11/22 01:01:20;;;;;;;;;;;15.70;84.10;;;;;;3983036;29;19983;-56
2023/11/22 01:04:01;;;;;;;;;;;15.70;84.00;;;;;;3983890;29;20070;-56
2023/11/22 01:06:43;;;;;;;;;;;15.70;83.90;;;;;;3983355;29;20137;-47
2023/11/22 01:09:24;;;;;;;;;;;15.80;83.80;;;;;;3984082;29;19940;-48
2023/11/22 01:12:06;;;;;;;;;;;15.80;83.60;;;;;;3961213;29;20095;-48
2023/11/22 01:14:47;;;;;;;;;;;15.80;83.40;;;;;;3969163;29;19940;-51
2023/11/22 01:17:28;;;;;;;;;;;15.80;83.40;;;;;;3968547;29;19936;-49
2023/11/22 01:20:11;;;;;;;;;;;15.80;83.30;;;;;;3957081;29;19936;-46
2023/11/22 01:22:53;;;;;;;;;;;15.80;83.10;;;;;;3969178;29;19940;-47
2023/11/22 01:25:34;;;;;;;;;;;15.80;83.10;;;;;;3968343;29;20385;-47
2023/11/22 01:28:15;;;;;;;;;;;15.80;83.00;;;;;;3972111;29;19951;-50
2023/11/22 01:30:57;;;;;;;;;;;15.80;83.10;;;;;;3967698;29;19940;-46
2023/11/22 01:33:38;;;;;;;;;;;15.80;83.20;;;;;;3957229;29;20392;-48
2023/11/22 01:36:19;;;;;;;;;;;15.80;83.10;;;;;;3968283;29;19940;-49
2023/11/22 01:39:03;;;;;;;;;;;15.80;83.80;;;;;;3967827;29;19940;-48
2023/11/22 01:41:45;;;;;;;;;;;15.80;82.80;;;;;;3972014;29;19967;-46
2023/11/22 01:44:26;;;;;;;;;;;15.80;82.90;;;;;;3982376;29;20281;-47
2023/11/22 01:47:08;;;;;;;;;;;15.80;83.00;;;;;;3971882;29;19936;-46
2023/11/22 01:49:50;;;;;;;;;;;15.80;82.90;;;;;;3975338;29;20066;-48
2023/11/22 01:52:30;;;;;;;;;;;15.80;82.80;;;;;;3967691;29;19936;-49
2023/11/22 01:55:13;;;;;;;;;;;15.80;82.70;;;;;;3967531;29;19939;-46
2023/11/22 01:57:54;;;;;;;;;;;15.80;82.80;;;;;;3966753;29;19936;-50
2023/11/22 02:00:37;;;;;;;;;;;15.80;82.90;;;;;;3968307;29;20081;-49
2023/11/22 02:03:18;;;;;;;;;;;15.80;82.80;;;;;;3982336;29;20400;-46
2023/11/22 02:06:00;;;;;;;;;;;15.80;82.80;;;;;;3970815;29;20412;-48
2023/11/22 02:08:41;;;;;;;;;;;15.70;82.80;;;;;;3966679;29;19936;-46
2023/11/22 02:11:24;;;;;;;;;;;15.70;82.80;;;;;;3967187;29;19949;-46
2023/11/22 02:14:06;;;;;;;;;;;15.70;82.90;;;;;;3966649;29;19940;-48
2023/11/22 02:16:47;;;;;;;;;;;15.70;82.90;;;;;;3966270;29;19936;-47
2023/11/22 02:19:30;;;;;;;;;;;15.80;82.70;;;;;;3956925;29;19947;-47
2023/11/22 02:22:11;;;;;;;;;;;15.80;82.40;;;;;;3967569;29;19935;-47
2023/11/22 02:24:53;;;;;;;;;;;15.90;82.20;;;;;;3967127;29;19936;-47
2023/11/22 02:27:34;;;;;;;;;;;15.90;82.10;;;;;;3971368;29;20798;-48
2023/11/22 02:30:15;;;;;;;;;;;15.90;82.10;;;;;;3979402;29;19936;-50
2023/11/22 02:32:56;;;;;;;;;;;15.90;82.70;;;;;;3981906;29;20073;-47
2023/11/22 02:35:37;;;;;;;;;;;16.00;81.70;;;;;;3982833;29;19940;-48
2023/11/22 02:38:18;;;;;;;;;;;15.90;81.50;;;;;;3970932;29;19936;-46
2023/11/22 02:41:00;;;;;;;;;;;15.90;81.60;;;;;;3982970;29;20035;-46
2023/11/22 02:43:42;;;;;;;;;;;15.90;81.70;;;;;;3981397;29;19939;-48
2023/11/22 02:46:23;;;;;;;;;;;15.90;81.60;;;;;;3982093;29;20404;-48
2023/11/22 02:49:05;;;;;;;;;;;15.90;81.70;;;;;;3967126;29;20298;-50
2023/11/22 02:51:46;;;;;;;;;;;15.90;81.70;;;;;;3967234;29;19940;-49
2023/11/22 02:54:26;;;;;;;;;;;15.80;81.60;;;;;;3966715;29;19936;-52
2023/11/22 02:57:08;;;;;;;;;;;15.80;81.60;;;;;;3969132;29;19958;-48
2023/11/22 02:59:49;;;;;;;;;;;15.80;81.70;;;;;;3973057;29;19936;-47
2023/11/22 03:02:30;;;;;;;;;;;15.80;81.80;;;;;;3957984;29;19940;-49
2023/11/22 03:05:12;;;;;;;;;;;15.80;81.70;;;;;;3970363;29;19997;-46
2023/11/22 03:07:54;;;;;;;;;;;15.90;81.60;;;;;;3970781;29;19940;-46
2023/11/22 03:10:35;;;;;;;;;;;15.90;81.50;;;;;;3982750;29;20065;-51
2023/11/22 03:13:18;;;;;;;;;;;15.90;81.50;;;;;;3982006;29;20404;-46
2023/11/22 03:16:00;;;;;;;;;;;15.90;81.40;;;;;;3972634;29;19985;-46
2023/11/22 03:18:40;;;;;;;;;;;15.90;81.30;;;;;;3969115;29;19940;-46
2023/11/22 03:21:21;;;;;;;;;;;15.80;81.30;;;;;;3970699;29;19980;-46
2023/11/22 03:24:03;;;;;;;;;;;15.80;81.50;;;;;;3982434;29;19939;-48
2023/11/22 03:26:45;;;;;;;;;;;15.80;81.70;;;;;;3981616;29;19936;-47
2023/11/22 03:29:28;;;;;;;;;;;15.80;82.40;;;;;;3982058;29;19939;-47
2023/11/22 03:32:08;;;;;;;;;;;15.80;81.30;;;;;;3981866;29;19936;-47
2023/11/22 03:34:49;;;;;;;;;;;15.90;81.20;;;;;;3968751;29;19940;-48
2023/11/22 03:37:29;;;;;;;;;;;15.90;81.00;;;;;;3967077;29;19985;-47
2023/11/22 03:40:11;;;;;;;;;;;15.90;80.80;;;;;;3966508;29;19998;-47
2023/11/22 03:42:52;;;;;;;;;;;15.90;80.80;;;;;;3966889;29;19956;-46
2023/11/22 03:45:34;;;;;;;;;;;15.90;80.80;;;;;;3967022;29;19952;-47
2023/11/22 03:48:15;;;;;;;;;;;15.90;80.80;;;;;;3966486;29;19989;-48
2023/11/22 03:50:55;;;;;;;;;;;15.80;80.90;;;;;;3966177;29;20385;-51
2023/11/22 03:53:36;;;;;;;;;;;15.80;81.20;;;;;;3969590;29;19981;-52
2023/11/22 03:56:16;;;;;;;;;;;15.70;81.30;;;;;;3970470;29;20384;-55
2023/11/22 03:58:58;;;;;;;;;;;15.70;81.50;;;;;;3981603;29;19954;-56
2023/11/22 04:01:40;;;;;;;;;;;15.60;81.30;;;;;;3981754;29;20301;-53
2023/11/22 04:04:21;;;;;;;;;;;15.60;81.50;;;;;;3972033;29;19935;-55
2023/11/22 04:07:01;;;;;;;;;;;15.60;81.70;;;;;;3969391;29;19979;-56
2023/11/22 04:09:42;;;;;;;;;;;15.70;81.70;;;;;;3982390;29;19935;-56
2023/11/22 04:12:24;;;;;;;;;;;15.80;81.40;;;;;;3984667;29;19936;-55
2023/11/22 04:15:08;;;;;;;;;;;15.80;81.10;;;;;;3970185;29;20013;-47
2023/11/22 04:17:50;;;;;;;;;;;15.90;81.00;;;;;;3978229;29;19939;-47
2023/11/22 04:20:31;;;;;;;;;;;15.80;80.90;;;;;;3969458;29;19936;-50
2023/11/22 04:23:13;;;;;;;;;;;15.80;81.00;;;;;;3971911;29;19940;-48
2023/11/22 04:25:55;;;;;;;;;;;15.70;81.10;;;;;;3984008;29;20036;-48
2023/11/22 04:28:36;;;;;;;;;;;15.70;81.40;;;;;;3984219;29;19936;-50
2023/11/22 04:31:17;;;;;;;;;;;15.80;81.50;;;;;;3984444;29;20037;-46
2023/11/22 04:34:00;;;;;;;;;;;15.90;81.20;;;;;;3983275;29;19961;-48
2023/11/22 04:36:41;;;;;;;;;;;16.00;80.70;;;;;;3984064;29;19935;-46
2023/11/22 04:39:22;;;;;;;;;;;16.00;80.20;;;;;;3984036;29;20034;-47
2023/11/22 04:42:02;;;;;;;;;;;16.10;80.00;;;;;;3983467;29;19940;-46
2023/11/22 04:44:43;;;;;;;;;;;16.20;79.70;;;;;;3948849;29;19957;-46
2023/11/22 04:47:25;;;;;;;;;;;16.30;79.40;;;;;;3957951;29;19984;-48
2023/11/22 04:50:07;;;;;;;;;;;16.40;78.90;;;;;;3968238;29;19936;-47
2023/11/22 04:52:48;;;;;;;;;;;16.40;79.40;;;;;;3968927;29;19940;-49
2023/11/22 04:55:29;;;;;;;;;;;16.40;78.30;;;;;;3983863;29;20118;-48
2023/11/22 04:58:10;;;;;;;;;;;16.40;78.40;;;;;;3983873;29;19975;-48
2023/11/22 05:00:50;;;;;;;;;;;16.40;78.30;;;;;;3957783;29;20278;-47
2023/11/22 05:03:31;;;;;;;;;;;16.50;78.10;;;;;;3971908;29;19952;-49
2023/11/22 05:06:13;;;;;;;;;;;16.60;77.70;;;;;;3983862;29;19951;-47
2023/11/22 05:08:55;;;;;;;;;;;16.60;78.30;;;;;;3983727;29;20455;-49
2023/11/22 05:11:36;;;;;;;;;;;16.60;77.50;;;;;;3983841;29;20426;-52
2023/11/22 05:14:16;;;;;;;;;;;16.50;77.50;;;;;;3982986;29;20406;-46
2023/11/22 05:16:57;;;;;;;;;;;16.40;77.80;;;;;;3967857;29;19962;-48
2023/11/22 05:19:38;;;;;;;;;;;16.40;77.90;;;;;;3968692;29;20045;-50
2023/11/22 05:22:20;;;;;;;;;;;16.50;77.90;;;;;;3968508;29;19940;-47
2023/11/22 05:25:01;;;;;;;;;;;16.50;77.70;;;;;;3978166;29;20458;-51
2023/11/22 05:27:42;;;;;;;;;;;16.50;77.70;;;;;;3982817;29;20081;-48
2023/11/22 05:30:22;;;;;;;;;;;16.50;77.60;;;;;;3983359;29;20081;-46
2023/11/22 05:33:03;;;;;;;;;;;16.60;77.50;;;;;;3968480;29;20340;-50
2023/11/22 05:35:44;;;;;;;;;;;16.50;78.20;;;;;;3968855;29;20434;-47
2023/11/22 05:38:26;;;;;;;;;;;16.50;77.50;;;;;;3972200;29;19939;-48
2023/11/22 05:41:07;;;;;;;;;;;16.40;77.60;;;;;;3957226;29;19975;-47
2023/11/22 05:43:49;;;;;;;;;;;16.30;77.80;;;;;;3968492;29;20062;-47
2023/11/22 05:46:29;;;;;;;;;;;16.40;78.00;;;;;;3967451;29;20405;-49
2023/11/22 05:49:11;;;;;;;;;;;16.30;78.00;;;;;;3969384;29;20018;-50
2023/11/22 05:51:52;;;;;;;;;;;16.30;78.10;;;;;;3983436;29;19944;-48
2023/11/22 05:54:35;;;;;;;;;;;16.20;78.20;;;;;;3982275;29;19936;-46
2023/11/22 05:57:16;;;;;;;;;;;16.10;78.40;;;;;;3982538;29;19939;-52
2023/11/22 05:59:57;;;;;;;;;;;16.00;79.60;;;;;;3982498;29;19939;-54
2023/11/22 06:02:38;;;;;;;;;;;15.90;79.10;;;;;;3983042;29;19936;-55
2023/11/22 06:05:19;;;;;;;;;;;15.90;79.40;;;;;;3982619;29;19971;-56
2023/11/22 06:08:01;;;;;;;;;;;15.80;79.50;;;;;;3983550;29;19935;-55
2023/11/22 06:10:43;;;;;;;;;;;15.80;79.70;;;;;;3970295;29;19977;-53
2023/11/22 06:13:23;;;;;;;;;;;15.70;79.90;;;;;;3983310;29;19936;-48
2023/11/22 06:16:04;;;;;;;;;;;15.60;80.10;;;;;;3983084;29;19940;-48
2023/11/22 06:18:46;;;;;;;;;;;15.60;80.40;;;;;;3980852;29;19979;-48
2023/11/22 06:21:27;;;;;;;;;;;15.50;80.60;;;;;;3982430;29;19952;-46
2023/11/22 06:24:10;;;;;;;;;;;15.50;81.00;;;;;;3982389;29;19939;-47
2023/11/22 06:26:53;;;;;;;;;;;15.40;81.20;;;;;;3978193;29;19939;-49
2023/11/22 06:29:33;;;;;;;;;;;15.30;81.50;;;;;;3970595;29;19940;-45
2023/11/22 06:32:14;;;;;;;;;;;15.30;81.60;;;;;;3982406;29;20047;-46
2023/11/22 06:34:55;;;;;;;;;;;15.30;81.00;;;;;;3982089;29;20353;-48
2023/11/22 06:37:36;;;;;;;;;;;15.30;80.40;;;;;;3982048;29;20013;-47
2023/11/22 06:40:17;;;;;;;;;;;15.20;80.30;;;;;;3981994;29;19976;-46
2023/11/22 06:42:59;;;;;;;;;;;15.30;80.10;;;;;;3970365;29;20317;-57
2023/11/22 06:45:41;;;;;;;;;;;15.30;79.80;;;;;;3982244;29;19939;-57
2023/11/22 06:48:22;;;;;;;;;;;15.40;79.40;;;;;;3981968;29;19936;-57
2023/11/22 06:51:04;;;;;;;;;;;15.60;78.90;;;;;;3982365;29;19977;-56
2023/11/22 06:53:44;;;;;;;;;;;15.70;78.20;;;;;;3982100;29;19955;-57
2023/11/22 06:56:25;;;;;;;;;;;15.80;77.40;;;;;;3982256;29;19940;-57
2023/11/22 06:59:07;;;;;;;;;;;16.00;76.80;;;;;;3979493;29;20014;-54
2023/11/22 07:01:48;;;;;;;;;;;16.00;76.30;;;;;;3981377;29;19940;-57
2023/11/22 07:04:29;;;;;;;;;;;16.10;76.20;;;;;;3981516;29;20016;-56
2023/11/22 07:07:11;;;;;;;;;;;16.10;76.20;;;;;;3979726;29;20781;-55
2023/11/22 07:09:51;;;;;;;;;;;16.10;76.20;;;;;;3966171;29;19940;-57
2023/11/22 07:12:34;;;;;;;;;;;16.10;76.10;;;;;;3975060;29;19949;-55
2023/11/22 07:15:17;;;;;;;;;;;16.00;77.00;;;;;;3982280;29;19971;-56
2023/11/22 07:17:58;;;;;;;;;;;16.00;76.40;;;;;;3981080;29;19936;-56
2023/11/22 07:20:39;;;;;;;;;;;15.90;76.60;;;;;;3982188;29;19968;-55
2023/11/22 07:23:25;;;;;;;;;;;15.80;77.00;;;;;;3982332;29;20024;-49
2023/11/22 07:26:06;;;;;;;;;;;15.70;77.50;;;;;;3982187;29;19985;-48
2023/11/22 07:28:47;;;;;;;;;;;15.70;77.40;;;;;;3971945;29;19939;-51
2023/11/22 07:31:30;;;;;;;;;;;15.80;77.50;;;;;;3981483;29;19957;-51
2023/11/22 07:34:12;;;;;;;;;;;15.90;77.40;;;;;;3982137;29;19935;-52
2023/11/22 07:36:54;;;;;;;;;;;16.00;77.10;;;;;;3969421;29;19940;-51
2023/11/22 07:39:36;;;;;;;;;;;16.20;76.40;;;;;;3968148;29;20040;-52
2023/11/22 07:42:18;;;;;;;;;;;16.30;75.70;;;;;;3969872;29;19951;-49
2023/11/22 07:44:58;;;;;;;;;;;16.40;75.10;;;;;;3967032;29;19936;-50
2023/11/22 07:47:41;;;;;;;;;;;16.50;74.50;;;;;;3981020;29;19940;-49
2023/11/22 07:50:24;;;;;;;;;;;16.50;75.00;;;;;;3976980;29;19940;-49
2023/11/22 07:53:04;;;;;;;;;;;16.60;73.90;;;;;;3979775;29;19936;-47
2023/11/22 07:55:45;;;;;;;;;;;16.60;73.70;;;;;;3969383;29;19940;-57
2023/11/22 07:58:25;;;;;;;;;;;16.60;73.40;;;;;;3980525;29;20083;-57
2023/11/22 08:01:13;;;;;;;;;;;16.60;73.30;;;;;;3979147;29;19940;-47
2023/11/22 08:03:56;;;;;;;;;;;16.60;73.10;;;;;;3981206;29;19936;-47
2023/11/22 08:06:38;;;;;;;;;;;16.60;72.70;;;;;;3980370;29;19939;-57
2023/11/22 08:09:19;;;;;;;;;;;16.60;72.60;;;;;;3973642;29;19982;-57
2023/11/22 08:12:02;;;;;;;;;;;16.60;72.70;;;;;;3969348;29;19960;-57
2023/11/22 08:14:46;;;;;;;;;;;16.50;72.60;;;;;;3966035;29;19940;-57
2023/11/22 08:17:27;;;;;;;;;;;16.40;72.70;;;;;;3970926;29;19988;-57
2023/11/22 08:20:12;;;;;;;;;;;16.40;73.10;;;;;;3978240;29;19940;-58
2023/11/22 08:22:55;;;;;;;;;;;16.30;73.20;;;;;;3978456;29;20073;-60
2023/11/22 08:25:37;;;;;;;;;;;16.30;73.40;;;;;;3974848;29;19936;-57
2023/11/22 08:28:18;;;;;;;;;;;16.20;73.40;;;;;;3976725;29;19940;-59
2023/11/22 08:30:58;;;;;;;;;;;16.20;73.50;;;;;;3966612;29;20400;-59
2023/11/22 08:33:40;;;;;;;;;;;16.20;73.90;;;;;;3953825;29;19940;-59
2023/11/22 08:36:22;;;;;;;;;;;16.10;74.00;;;;;;3971273;29;20382;-58
2023/11/22 08:39:03;;;;;;;;;;;16.10;74.20;;;;;;3969282;29;20025;-59
2023/11/22 08:41:44;;;;;;;;;;;16.00;74.40;;;;;;3963984;29;20348;-62
2023/11/22 08:44:25;;;;;;;;;;;15.90;75.00;;;;;;3965656;29;19936;-59
2023/11/22 08:47:05;;;;;;;;;;;15.90;75.60;;;;;;3977684;29;19940;-59
2023/11/22 08:49:48;;;;;;;;;;;15.80;75.60;;;;;;3976318;29;20508;-59
2023/11/22 08:52:30;;;;;;;;;;;15.90;75.60;;;;;;3982540;29;19940;-59
2023/11/22 08:55:12;;;;;;;;;;;16.00;75.10;;;;;;3984262;29;19984;-48
2023/11/22 08:57:52;;;;;;;;;;;16.00;74.70;;;;;;3983921;29;19944;-52
2023/11/22 09:00:33;;;;;;;;;;;16.10;74.20;;;;;;3984531;29;20003;-49
2023/11/22 09:03:14;;;;;;;;;;;16.10;73.60;;;;;;3957618;29;19989;-48
2023/11/22 09:05:55;;;;;;;;;;;16.10;73.30;;;;;;3971137;29;20744;-50
2023/11/22 09:08:38;;;;;;;;;;;16.10;73.00;;;;;;3982857;29;19969;-49
2023/11/22 09:11:22;;;;;;;;;;;16.00;72.90;;;;;;3983101;29;19985;-51
2023/11/22 09:14:04;;;;;;;;;;;16.00;72.70;;;;;;3982606;29;19936;-48
2023/11/22 09:16:45;;;;;;;;;;;16.00;72.80;;;;;;3968204;29;19940;-48
2023/11/22 09:19:26;;;;;;;;;;;15.90;72.80;;;;;;3956041;29;20388;-53
2023/11/22 09:22:08;;;;;;;;;;;15.90;73.00;;;;;;3971948;29;20012;-50
2023/11/22 09:24:51;;;;;;;;;;;15.90;72.90;;;;;;3970570;29;19940;-59
2023/11/22 09:27:32;;;;;;;;;;;15.80;72.80;;;;;;3972329;29;20282;-59
2023/11/22 09:30:18;;;;;;;;;;;15.80;73.40;;;;;;3967112;29;20021;-58
2023/11/22 09:32:58;;;;;;;;;;;15.80;73.90;;;;;;3965996;29;19939;-60
2023/11/22 09:35:39;;;;;;;;;;;15.80;75.00;;;;;;3967314;29;20293;-60
2023/11/22 09:38:20;;;;;;;;;;;15.80;75.80;;;;;;3965998;29;20802;-55
2023/11/22 09:41:02;;;;;;;;;;;15.80;77.40;;;;;;3972656;29;19935;-56
2023/11/22 09:43:46;;;;;;;;;;;15.80;77.10;;;;;;3968215;29;20440;-57
2023/11/22 09:46:29;;;;;;;;;;;15.80;77.70;;;;;;3972497;29;20090;-59
2023/11/22 09:49:15;;;;;;;;;;;15.80;78.90;;;;;;3972746;29;19944;-60
2023/11/22 09:51:58;;;;;;;;;;;15.70;80.20;;;;;;3973854;29;19943;-60
2023/11/22 09:54:40;;;;;;;;;;;15.70;80.90;;;;;;3975479;29;19940;-59
2023/11/22 09:57:23;;;;;;;;;;;15.80;81.10;;;;;;3971756;29;19935;-58
2023/11/22 10:00:05;;;;;;;;;;;15.80;81.10;;;;;;3967891;29;19956;-57
2023/11/22 10:02:48;;;;;;;;;;;15.80;81.80;;;;;;3968599;29;19939;-55
2023/11/22 10:05:29;;;;;;;;;;;15.90;82.10;;;;;;3979901;29;20033;-60
2023/11/22 10:08:10;;;;;;;;;;;15.90;82.20;;;;;;3979682;29;20357;-57
2023/11/22 10:10:53;;;;;;;;;;;16.00;82.40;;;;;;3979559;29;19943;-56
2023/11/22 10:13:36;;;;;;;;;;;16.00;82.20;;;;;;3978880;29;20009;-58
2023/11/22 10:16:18;;;;;;;;;;;16.00;82.10;;;;;;3968704;29;20488;-57
2023/11/22 10:18:58;;;;;;;;;;;16.10;82.30;;;;;;3966186;29;19989;-50
2023/11/22 10:21:40;;;;;;;;;;;16.00;82.10;;;;;;3979250;29;19947;-52
2023/11/22 10:24:21;;;;;;;;;;;16.00;82.30;;;;;;3967874;29;19940;-50
2023/11/22 10:27:02;;;;;;;;;;;16.10;83.00;;;;;;3965780;29;20483;-50
2023/11/22 10:29:47;;;;;;;;;;;16.10;82.70;;;;;;3966350;29;20051;-55
2023/11/22 10:32:27;;;;;;;;;;;16.20;82.30;;;;;;3979513;29;20305;-56
2023/11/22 10:35:09;;;;;;;;;;;16.20;82.00;;;;;;3954290;29;19939;-53
2023/11/22 10:37:49;;;;;;;;;;;16.20;81.90;;;;;;3964956;29;19953;-50
2023/11/22 10:40:30;;;;;;;;;;;16.10;81.90;;;;;;3965175;29;20369;-52
2023/11/22 10:43:11;;;;;;;;;;;16.00;82.10;;;;;;3970715;29;20774;-53
2023/11/22 10:45:55;;;;;;;;;;;16.00;82.30;;;;;;3967430;29;20392;-54
2023/11/22 10:48:36;;;;;;;;;;;15.90;82.80;;;;;;3967149;29;20000;-51
2023/11/22 10:51:19;;;;;;;;;;;15.90;83.60;;;;;;3979812;29;19939;-56
2023/11/22 10:54:01;;;;;;;;;;;15.90;84.20;;;;;;3979100;29;19961;-55
2023/11/22 10:56:42;;;;;;;;;;;16.00;84.50;;;;;;3970044;29;19936;-59
2023/11/22 10:59:27;;;;;;;;;;;16.10;84.50;;;;;;3979711;29;20117;-58
2023/11/22 11:02:13;;;;;;;;;;;16.10;84.30;;;;;;3980061;29;20066;-56
2023/11/22 11:04:57;;;;;;;;;;;16.20;84.40;;;;;;3979536;29;20004;-57
2023/11/22 11:07:40;;;;;;;;;;;16.30;84.40;;;;;;3965447;29;20045;-55
2023/11/22 11:10:22;;;;;;;;;;;16.30;84.40;;;;;;3979552;29;19955;-51
2023/11/22 11:13:05;;;;;;;;;;;16.30;84.40;;;;;;3968102;29;19940;-55
2023/11/22 11:15:47;;;;;;;;;;;16.40;84.50;;;;;;3964700;29;19953;-54
2023/11/22 11:18:29;;;;;;;;;;;16.40;84.70;;;;;;3959058;29;19940;-54
2023/11/22 11:21:13;;;;;;;;;;;16.40;84.80;;;;;;3974241;29;20024;-55
2023/11/22 11:23:55;;;;;;;;;;;16.50;84.70;;;;;;3978994;29;20389;-55
2023/11/22 11:26:38;;;;;;;;;;;16.50;84.90;;;;;;3966997;29;19988;-53
2023/11/22 11:29:40;;;;;;;;;;;16.50;84.60;;;;;;3970106;29;19940;-55
2023/11/22 11:32:31;;;;;;;;;;;16.60;84.50;;;;;;3972339;29;19944;-55
2023/11/22 11:35:14;;;;;;;;;;;16.60;84.30;;;;;;3964234;29;19944;-51
2023/11/22 11:38:01;;;;;;;;;;;16.60;84.00;;;;;;3965276;29;19936;-52
2023/11/22 11:40:42;;;;;;;;;;;16.50;84.00;;;;;;3979206;29;20392;-51
2023/11/22 11:43:39;;;;;;;;;;;16.50;84.40;;;;;;3979348;29;19939;-54
2023/11/22 11:46:22;;;;;;;;;;;16.40;84.40;;;;;;3978604;29;19940;-51
2023/11/22 11:49:07;;;;;;;;;;;16.30;84.70;;;;;;3964757;29;20083;-56
2023/11/22 11:51:51;;;;;;;;;;;16.30;84.90;;;;;;3978630;29;19940;-56
2023/11/22 11:54:32;;;;;;;;;;;16.10;85.10;;;;;;3977908;29;19939;-54
2023/11/22 11:57:13;;;;;;;;;;;16.10;85.70;;;;;;3967580;29;19936;-55
2023/11/22 11:59:54;;;;;;;;;;;16.10;85.80;;;;;;3964973;29;19956;-53
2023/11/22 12:02:35;;;;;;;;;;;16.00;85.80;;;;;;3965277;29;19940;-55
2023/11/22 12:05:20;;;;;;;;;;;16.00;85.80;;;;;;3969210;29;20081;-54
2023/11/22 12:08:02;;;;;;;;;;;15.90;86.00;;;;;;3966671;29;19940;-52
2023/11/22 12:10:42;;;;;;;;;;;15.90;86.10;;;;;;3973559;29;20293;-53
2023/11/22 12:13:23;;;;;;;;;;;15.90;86.40;;;;;;3964879;29;20032;-53
2023/11/22 12:16:05;;;;;;;;;;;15.90;86.40;;;;;;3976976;29;19940;-54
2023/11/22 12:18:47;;;;;;;;;;;15.80;86.50;;;;;;3979362;29;19984;-54
2023/11/22 12:21:30;;;;;;;;;;;15.80;87.00;;;;;;3972277;29;20425;-54
2023/11/22 12:24:13;;;;;;;;;;;15.70;86.10;;;;;;3979554;29;19981;-55
2023/11/22 12:26:55;;;;;;;;;;;15.70;83.80;;;;;;3970616;29;19940;-55
2023/11/22 12:29:36;;;;;;;;;;;15.80;82.40;;;;;;3984332;29;19939;-59
2023/11/22 12:32:17;;;;;;;;;;;15.90;81.10;;;;;;3984309;29;20438;-59
2023/11/22 12:34:59;;;;;;;;;;;15.90;79.80;;;;;;3984129;29;19940;-58
2023/11/22 12:37:39;;;;;;;;;;;16.00;78.00;;;;;;3983261;29;19936;-55
2023/11/22 12:40:22;;;;;;;;;;;16.00;77.00;;;;;;3983839;29;20076;-55
2023/11/22 12:43:03;;;;;;;;;;;16.00;76.40;;;;;;3983683;29;19949;-52
2023/11/22 12:45:46;;;;;;;;;;;16.10;76.40;;;;;;3972528;29;20081;-55
2023/11/22 12:48:29;;;;;;;;;;;16.10;76.20;;;;;;3982359;29;19994;-55
2023/11/22 12:51:15;;;;;;;;;;;16.10;75.40;;;;;;3981735;29;20070;-54
2023/11/22 12:53:57;;;;;;;;;;;16.10;74.80;;;;;;3972744;29;20108;-53
2023/11/22 12:56:39;;;;;;;;;;;16.20;73.50;;;;;;3979165;29;19947;-54
2023/11/22 12:59:20;;;;;;;;;;;16.10;73.00;;;;;;3969202;29;19949;-55
2023/11/22 13:02:02;;;;;;;;;;;16.10;72.60;;;;;;3969221;29;20147;-55
2023/11/22 13:04:45;;;;;;;;;;;16.10;72.20;;;;;;3957975;29;20047;-55
2023/11/22 13:07:26;;;;;;;;;;;16.00;71.70;;;;;;3962798;29;20297;-55
2023/11/22 13:10:09;;;;;;;;;;;15.90;72.50;;;;;;3962365;29;20490;-54
2023/11/22 13:12:51;;;;;;;;;;;15.80;71.00;;;;;;3982110;29;19952;-54
2023/11/22 13:15:32;;;;;;;;;;;15.70;70.70;;;;;;3968528;29;20341;-60
2023/11/22 13:18:13;;;;;;;;;;;15.60;72.00;;;;;;3972347;29;19984;-51
2023/11/22 13:20:54;;;;;;;;;;;15.60;71.00;;;;;;3994953;29;19935;-52
2023/11/22 13:23:34;;;;;;;;;;;15.70;70.40;;;;;;3968242;29;19944;-53
2023/11/22 13:26:15;;;;;;;;;;;15.70;70.00;;;;;;3974716;29;20438;-51
2023/11/22 13:28:58;;;;;;;;;;;15.70;70.00;;;;;;3973135;29;19935;-50
2023/11/22 13:31:39;;;;;;;;;;;15.70;70.00;;;;;;3988761;29;20018;-53
2023/11/22 13:34:20;;;;;;;;;;;15.70;70.10;;;;;;3994913;29;19940;-47
2023/11/22 13:37:01;;;;;;;;;;;15.60;70.60;;;;;;3982844;29;19936;-51
2023/11/22 13:39:42;;;;;;;;;;;15.60;71.00;;;;;;3971308;29;20021;-53
2023/11/22 13:42:23;;;;;;;;;;;15.60;71.30;;;;;;3968540;29;19940;-51
2023/11/22 13:45:05;;;;;;;;;;;15.50;71.30;;;;;;3968400;29;20594;-51
2023/11/22 13:47:47;;;;;;;;;;;15.40;71.10;;;;;;3972884;29;19940;-50
2023/11/22 13:50:28;;;;;;;;;;;15.40;71.30;;;;;;3968115;29;20297;-55
2023/11/22 13:53:10;;;;;;;;;;;15.30;71.00;;;;;;3968323;29;20388;-51
2023/11/22 13:55:53;;;;;;;;;;;15.30;70.60;;;;;;3968394;29;19936;-50
2023/11/22 13:58:34;;;;;;;;;;;15.20;70.50;;;;;;3968441;29;20389;-53
2023/11/22 14:01:21;;;;;;;;;;;15.30;70.60;;;;;;3968300;29;19940;-54
2023/11/22 14:04:03;;;;;;;;;;;15.30;70.20;;;;;;3968202;29;19936;-54
2023/11/22 14:06:44;;;;;;;;;;;15.30;69.60;;;;;;3967859;29;19940;-52
2023/11/22 14:09:25;;;;;;;;;;;15.30;69.60;;;;;;3972092;29;20059;-54
2023/11/22 14:12:06;;;;;;;;;;;15.30;69.30;;;;;;3967366;29;20469;-53
2023/11/22 14:14:46;;;;;;;;;;;15.30;69.10;;;;;;3956812;29;20057;-53
2023/11/22 14:17:29;;;;;;;;;;;15.30;69.40;;;;;;3977947;29;19935;-53
2023/11/22 14:20:10;;;;;;;;;;;15.30;69.50;;;;;;3982594;29;19939;-54
2023/11/22 14:22:52;;;;;;;;;;;15.30;69.50;;;;;;3969942;29;19956;-50
2023/11/22 14:25:32;;;;;;;;;;;15.30;69.70;;;;;;3977531;29;19939;-55
2023/11/22 14:28:13;;;;;;;;;;;15.30;69.30;;;;;;3978464;29;19936;-55
2023/11/22 14:30:55;;;;;;;;;;;15.30;69.10;;;;;;3979947;29;19935;-51
2023/11/22 14:33:37;;;;;;;;;;;15.40;69.10;;;;;;3982921;29;19940;-55
2023/11/22 14:36:18;;;;;;;;;;;15.50;69.20;;;;;;3980806;29;20069;-54
2023/11/22 14:38:59;;;;;;;;;;;15.50;68.80;;;;;;3972001;29;19936;-51
2023/11/22 14:41:39;;;;;;;;;;;15.60;68.70;;;;;;3967734;29;20393;-56
2023/11/22 14:44:20;;;;;;;;;;;15.60;69.30;;;;;;3967889;29;20059;-55
2023/11/22 14:47:02;;;;;;;;;;;15.60;68.30;;;;;;3968177;29;19940;-55
2023/11/22 14:49:44;;;;;;;;;;;15.60;68.30;;;;;;3966556;29;19936;-53
2023/11/22 14:52:27;;;;;;;;;;;15.60;68.10;;;;;;3967760;29;19939;-53
2023/11/22 14:55:10;;;;;;;;;;;15.60;67.90;;;;;;3973838;29;19936;-54
2023/11/22 14:57:52;;;;;;;;;;;15.60;68.30;;;;;;3982892;29;19935;-52
2023/11/22 15:00:34;;;;;;;;;;;15.70;68.90;;;;;;3981580;29;20289;-53
2023/11/22 15:03:14;;;;;;;;;;;15.70;67.60;;;;;;3969932;29;19997;-54
2023/11/22 15:05:57;;;;;;;;;;;15.70;67.80;;;;;;3979273;29;20335;-52
2023/11/22 15:08:38;;;;;;;;;;;15.70;68.10;;;;;;3958518;29;19982;-53
2023/11/22 15:11:19;;;;;;;;;;;15.80;68.30;;;;;;3967226;29;20083;-52
2023/11/22 15:14:00;;;;;;;;;;;15.70;68.00;;;;;;3967407;29;20396;-49
2023/11/22 15:16:41;;;;;;;;;;;15.90;70.50;;;;;;3982972;29;20085;-51
2023/11/22 15:19:24;;;;;;;;;;;16.00;71.10;;;;;;3981350;29;19936;-50
2023/11/22 15:22:06;;;;;;;;;;;16.00;71.60;;;;;;3981825;29;20078;-53
2023/11/22 15:24:47;;;;;;;;;;;16.10;72.20;;;;;;3982080;29;19975;-52
2023/11/22 15:27:28;;;;;;;;;;;16.20;72.40;;;;;;3981925;29;20084;-50
2023/11/22 15:30:12;;;;;;;;;;;16.30;72.60;;;;;;3981115;29;19936;-54
2023/11/22 15:32:53;;;;;;;;;;;16.40;72.60;;;;;;3981870;29;20411;-54
2023/11/22 15:35:34;;;;;;;;;;;16.40;72.80;;;;;;3981654;29;19939;-51
2023/11/22 15:38:16;;;;;;;;;;;16.50;73.50;;;;;;3981783;29;19936;-49
2023/11/22 15:40:59;;;;;;;;;;;16.50;73.80;;;;;;3981714;29;19955;-51